Time;durP1;ratioP1;P1;durP2;ratioP2;P2;SDS_P1;SDS_P2;PMS_P1;PMS_P2;Temp;Humidity;BMP_temperature;BMP_pressure;BME280_temperature;BME280_humidity;BME280_pressure;Samples;Min_cycle;Max_cycle;Signal;HPM_P1;HPM_P2
2022/07/18 02:48:12;;;;;;;4.03;1.33;;;17.10;80.10;;;;;;5006269;23;89817;-70
2022/07/18 02:50:38;;;;;;;2.70;1.23;;;17.00;79.20;;;;;;4901926;28;87875;-70
2022/07/18 02:53:04;;;;;;;4.68;1.38;;;17.10;78.70;;;;;;4902336;28;87086;-70
2022/07/18 02:55:29;;;;;;;3.40;1.10;;;17.30;78.30;;;;;;4901052;28;87234;-71
2022/07/18 02:57:55;;;;;;;5.93;1.58;;;17.30;78.20;;;;;;4901628;28;87494;-72
2022/07/18 03:00:21;;;;;;;4.38;1.33;;;17.10;79.70;;;;;;4901752;28;87100;-69
2022/07/18 03:02:46;;;;;;;4.13;1.35;;;17.20;79.60;;;;;;4902098;28;87132;-70
2022/07/18 03:05:13;;;;;;;5.40;1.50;;;17.10;80.00;;;;;;4902660;28;86338;-71
2022/07/18 03:07:39;;;;;;;7.68;1.52;;;17.10;79.50;;;;;;4901347;28;87189;-70
2022/07/18 03:10:06;;;;;;;2.55;1.35;;;17.10;80.10;;;;;;4900376;28;87027;-72
2022/07/18 03:12:32;;;;;;;3.97;1.40;;;17.10;79.90;;;;;;4898805;28;87900;-73
2022/07/18 03:14:59;;;;;;;2.53;1.17;;;17.10;79.90;;;;;;4899250;28;87029;-70
2022/07/18 03:17:24;;;;;;;4.32;1.45;;;17.00;80.30;;;;;;4898305;28;87125;-70
2022/07/18 03:19:50;;;;;;;3.28;1.80;;;16.80;81.00;;;;;;4899040;28;87505;-72
2022/07/18 03:22:16;;;;;;;3.42;1.20;;;16.80;81.50;;;;;;4899422;28;86990;-71
2022/07/18 03:24:42;;;;;;;4.50;2.10;;;16.90;80.80;;;;;;4900182;28;87401;-70
2022/07/18 03:27:07;;;;;;;3.67;1.40;;;17.00;80.10;;;;;;4898614;28;88235;-71
2022/07/18 03:29:33;;;;;;;2.70;1.23;;;17.10;79.90;;;;;;4887647;28;87548;-71
2022/07/18 03:31:59;;;;;;;6.25;1.20;;;17.10;80.20;;;;;;4891022;28;87788;-70
2022/07/18 03:34:25;;;;;;;5.10;1.02;;;17.00;80.30;;;;;;4899344;28;87060;-70
2022/07/18 03:36:50;;;;;;;7.25;1.55;;;17.00;80.50;;;;;;4898921;28;88474;-72
2022/07/18 03:39:16;;;;;;;4.07;1.40;;;17.00;80.80;;;;;;4899650;28;87175;-69
2022/07/18 03:41:42;;;;;;;3.75;1.42;;;17.00;80.80;;;;;;4898388;28;86925;-72
2022/07/18 03:44:08;;;;;;;3.45;1.40;;;17.00;80.90;;;;;;4897183;28;87097;-70
2022/07/18 03:46:34;;;;;;;3.63;1.42;;;16.90;81.50;;;;;;4898718;28;87522;-70
2022/07/18 03:49:00;;;;;;;3.70;1.27;;;16.90;81.50;;;;;;4899952;28;86993;-69
2022/07/18 03:51:26;;;;;;;3.40;1.25;;;16.90;81.60;;;;;;4899560;28;86998;-69
2022/07/18 03:53:52;;;;;;;4.00;1.23;;;16.90;82.20;;;;;;4888839;28;85958;-69
2022/07/18 03:56:18;;;;;;;4.97;1.73;;;17.00;81.90;;;;;;4879330;28;87064;-72
2022/07/18 03:58:44;;;;;;;3.78;1.33;;;17.00;81.20;;;;;;4880147;28;87110;-71
2022/07/18 04:01:09;;;;;;;4.75;1.45;;;17.10;81.50;;;;;;4880175;28;87979;-72
2022/07/18 04:03:35;;;;;;;4.80;1.50;;;17.20;80.70;;;;;;4887073;28;87278;-73
2022/07/18 04:06:01;;;;;;;4.32;1.38;;;17.20;81.20;;;;;;4876456;28;87197;-71
2022/07/18 04:08:27;;;;;;;5.70;1.50;;;17.20;81.10;;;;;;4879354;28;87895;-71
2022/07/18 04:10:53;;;;;;;9.38;1.52;;;17.20;81.20;;;;;;4889463;28;86903;-71
2022/07/18 04:13:19;;;;;;;4.03;1.50;;;17.40;81.20;;;;;;4899977;28;87377;-70
2022/07/18 04:15:45;;;;;;;4.32;1.55;;;17.80;80.90;;;;;;4899863;28;87299;-70
2022/07/18 04:18:10;;;;;;;6.13;1.88;;;18.30;79.30;;;;;;4886241;28;86133;-72
2022/07/18 04:20:38;;;;;;;3.13;1.70;;;18.80;76.10;;;;;;4897154;28;87177;-71
2022/07/18 04:23:07;;;;;;;9.05;2.00;;;19.40;76.10;;;;;;4880867;28;86998;-69
2022/07/18 04:25:35;;;;;;;6.13;1.80;;;19.50;74.10;;;;;;4881102;28;88358;-71
2022/07/18 04:28:02;;;;;;;5.25;2.10;;;19.90;72.80;;;;;;4881976;28;89363;-71
2022/07/18 04:30:28;;;;;;;6.05;2.42;;;20.60;70.10;;;;;;4880478;28;86993;-70
2022/07/18 04:32:55;;;;;;;5.53;2.20;;;20.60;69.50;;;;;;4881213;28;87126;-70
2022/07/18 04:35:22;;;;;;;8.13;2.42;;;20.50;69.20;;;;;;4882126;28;87465;-71
2022/07/18 04:37:48;;;;;;;8.73;2.30;;;20.50;69.20;;;;;;4900470;28;86955;-75
2022/07/18 04:40:15;;;;;;;7.50;2.63;;;20.90;69.40;;;;;;4901389;28;86919;-70
2022/07/18 04:42:41;;;;;;;5.00;1.75;;;21.40;67.20;;;;;;4900190;28;86216;-70
2022/07/18 04:45:08;;;;;;;6.90;2.53;;;21.60;66.00;;;;;;4881679;28;87061;-70
2022/07/18 04:47:34;;;;;;;5.82;1.95;;;22.20;64.20;;;;;;4881801;28;87375;-72
2022/07/18 04:50:00;;;;;;;5.93;2.20;;;22.80;62.90;;;;;;4881867;28;87996;-74
2022/07/18 04:52:26;;;;;;;5.53;2.13;;;23.20;63.30;;;;;;4862753;29;87056;-72
2022/07/18 04:54:51;;;;;;;4.93;1.70;;;23.40;61.70;;;;;;4863467;29;87437;-71
2022/07/18 04:57:17;;;;;;;6.07;2.08;;;23.50;62.00;;;;;;4892225;28;87849;-70
2022/07/18 04:59:44;;;;;;;5.70;2.47;;;23.30;60.90;;;;;;4901921;28;87394;-70
2022/07/18 05:02:11;;;;;;;5.15;2.00;;;24.00;59.30;;;;;;4901390;28;86997;-70
2022/07/18 05:04:38;;;;;;;4.03;2.20;;;24.70;57.90;;;;;;4900823;28;87086;-70
2022/07/18 05:07:04;;;;;;;5.93;2.35;;;25.80;56.40;;;;;;4900724;28;86399;-70
2022/07/18 05:09:30;;;;;;;5.80;2.22;;;26.80;55.00;;;;;;4867333;28;87239;-70
2022/07/18 05:11:56;;;;;;;5.20;2.38;;;27.60;52.60;;;;;;4881874;28;88002;-71
2022/07/18 05:14:22;;;;;;;9.48;3.05;;;28.10;50.70;;;;;;4880430;28;87823;-74
2022/07/18 05:16:48;;;;;;;6.80;2.33;;;28.20;49.40;;;;;;4881853;28;88751;-71
2022/07/18 05:19:17;;;;;;;5.82;2.88;;;28.30;49.90;;;;;;4882988;28;87231;-72
2022/07/18 05:21:43;;;;;;;5.80;3.00;;;28.50;48.50;;;;;;4885011;28;86948;-71
2022/07/18 05:24:09;;;;;;;14.07;2.88;;;27.70;50.30;;;;;;4881512;28;87123;-71
2022/07/18 05:26:35;;;;;;;8.52;2.60;;;27.90;50.10;;;;;;4881110;28;88177;-71
2022/07/18 05:29:01;;;;;;;6.22;2.50;;;28.20;49.00;;;;;;4881491;28;86524;-71
2022/07/18 05:31:27;;;;;;;8.98;2.72;;;28.10;48.90;;;;;;4863036;28;86288;-69
2022/07/18 05:33:52;;;;;;;5.47;2.63;;;26.90;51.90;;;;;;4862305;28;87258;-74
2022/07/18 05:36:18;;;;;;;9.32;2.63;;;27.80;50.60;;;;;;4875826;28;87481;-71
2022/07/18 05:38:44;;;;;;;7.28;2.72;;;29.30;48.80;;;;;;4883152;28;88010;-75
2022/07/18 05:41:09;;;;;;;7.72;2.75;;;29.80;46.30;;;;;;4884564;28;86900;-72
2022/07/18 05:43:35;;;;;;;4.75;2.95;;;30.50;46.70;;;;;;4883796;28;89424;-74
2022/07/18 05:46:01;;;;;;;7.43;2.63;;;32.30;44.70;;;;;;4883998;28;87427;-72
2022/07/18 05:48:27;;;;;;;6.65;2.72;;;33.30;42.40;;;;;;4888599;28;87026;-72
2022/07/18 05:50:53;;;;;;;12.85;3.05;;;34.50;40.90;;;;;;4869459;28;87466;-72
2022/07/18 05:53:18;;;;;;;16.58;3.40;;;34.10;40.80;;;;;;4866122;28;89104;-74
2022/07/18 05:55:44;;;;;;;6.50;2.65;;;34.60;38.60;;;;;;4897948;28;87658;-73
2022/07/18 05:58:10;;;;;;;8.00;2.25;;;34.10;40.90;;;;;;4902936;28;87001;-72
2022/07/18 06:00:35;;;;;;;5.90;2.75;;;35.20;38.80;;;;;;4901618;28;87549;-76
2022/07/18 06:03:01;;;;;;;6.70;2.17;;;36.10;38.00;;;;;;4879952;28;88364;-74
2022/07/18 06:05:27;;;;;;;6.18;2.03;;;36.80;38.00;;;;;;4889264;28;88372;-71
2022/07/18 06:07:54;;;;;;;4.53;2.35;;;37.50;37.70;;;;;;4902622;28;86967;-72
2022/07/18 06:10:20;;;;;;;5.40;3.13;;;37.70;37.10;;;;;;4895577;28;87406;-72
2022/07/18 06:12:46;;;;;;;4.13;2.72;;;37.50;37.30;;;;;;4900474;28;87348;-69
2022/07/18 06:15:14;;;;;;;4.70;2.38;;;38.10;36.40;;;;;;4883840;28;87282;-70
2022/07/18 06:17:39;;;;;;;4.68;2.78;;;38.80;36.20;;;;;;4902010;28;86976;-74
2022/07/18 06:20:07;;;;;;;8.30;3.22;;;39.40;34.60;;;;;;4885844;28;86381;-70
2022/07/18 06:22:34;;;;;;;6.07;3.00;;;39.10;34.80;;;;;;4865816;29;87146;-70
2022/07/18 06:25:00;;;;;;;7.55;2.70;;;38.90;33.80;;;;;;4856981;28;89679;-72
2022/07/18 06:27:25;;;;;;;5.25;3.47;;;38.00;34.30;;;;;;4881886;28;87919;-77
2022/07/18 06:29:51;;;;;;;4.75;2.85;;;37.30;34.80;;;;;;4881972;28;87356;-71
2022/07/18 06:32:17;;;;;;;8.02;2.97;;;36.70;36.50;;;;;;4882485;28;88084;-73
2022/07/18 06:34:42;;;;;;;4.68;1.95;;;37.60;35.60;;;;;;4881536;28;87008;-72
2022/07/18 06:37:08;;;;;;;5.15;2.42;;;39.10;35.50;;;;;;4865046;28;87524;-74
2022/07/18 06:39:34;;;;;;;6.82;3.40;;;39.10;34.10;;;;;;4882111;28;87042;-71
2022/07/18 06:42:00;;;;;;;4.95;2.17;;;40.20;33.30;;;;;;4881093;28;86894;-73
2022/07/18 06:44:26;;;;;;;7.65;5.22;;;41.00;33.10;;;;;;4876119;28;86195;-72
2022/07/18 06:46:52;;;;;;;7.47;3.17;;;41.70;32.40;;;;;;4862375;29;87170;-70
2022/07/18 06:49:18;;;;;;;14.68;2.80;;;41.80;31.50;;;;;;4861485;29;87397;-72
2022/07/18 06:51:44;;;;;;;4.22;2.75;;;41.80;32.90;;;;;;4862319;29;88543;-71
2022/07/18 06:54:10;;;;;;;10.23;2.92;;;42.60;32.90;;;;;;4865771;28;87741;-72
2022/07/18 06:56:35;;;;;;;7.50;3.30;;;43.00;30.70;;;;;;4881274;28;87604;-73
2022/07/18 06:59:01;;;;;;;8.02;3.50;;;43.30;31.00;;;;;;4880834;28;87138;-77
2022/07/18 07:01:27;;;;;;;6.00;3.05;;;42.30;30.80;;;;;;4880573;28;87730;-73
2022/07/18 07:03:52;;;;;;;6.07;3.20;;;40.60;32.80;;;;;;4879757;28;88034;-75
2022/07/18 07:06:20;;;;;;;5.03;2.67;;;40.40;32.10;;;;;;4862242;29;86341;-74
2022/07/18 07:08:46;;;;;;;5.63;3.15;;;40.50;32.90;;;;;;4862303;29;86425;-75
2022/07/18 07:11:11;;;;;;;8.50;2.88;;;41.10;33.20;;;;;;4888149;28;87020;-74
2022/07/18 07:13:37;;;;;;;8.20;3.70;;;41.50;32.90;;;;;;4892393;28;87451;-73
2022/07/18 07:16:03;;;;;;;6.60;2.72;;;43.00;32.30;;;;;;4878812;28;87807;-71
2022/07/18 07:18:29;;;;;;;6.70;2.78;;;44.20;31.30;;;;;;4881013;28;87143;-72
2022/07/18 07:20:55;;;;;;;7.35;2.97;;;44.90;30.20;;;;;;4879149;28;87770;-73
2022/07/18 07:23:20;;;;;;;5.55;3.33;;;45.30;30.60;;;;;;4884718;28;87158;-78
2022/07/18 07:25:46;;;;;;;6.68;3.35;;;46.20;30.50;;;;;;4874626;28;86883;-73
2022/07/18 07:28:12;;;;;;;5.72;3.65;;;46.90;30.30;;;;;;4871252;29;86939;-75
2022/07/18 07:30:37;;;;;;;5.82;3.08;;;47.30;30.00;;;;;;4872441;29;87336;-76
2022/07/18 07:33:03;;;;;;;5.28;3.45;;;47.90;29.40;;;;;;4865361;29;87345;-73
2022/07/18 07:35:29;;;;;;;7.78;3.72;;;47.70;29.50;;;;;;4877181;28;86810;-72
2022/07/18 07:37:58;;;;;;;5.60;3.60;;;48.30;29.30;;;;;;4880700;28;87062;-75
2022/07/18 07:40:26;;;;;;;6.05;4.13;;;48.30;29.30;;;;;;4880678;28;89095;-71
2022/07/18 07:42:51;;;;;;;;;;;48.40;29.80;;;;;;4880727;28;87272;-77
2022/07/18 07:45:18;;;;;;;7.53;4.95;;;48.10;30.00;;;;;;4873325;28;87570;-73
2022/07/18 07:47:44;;;;;;;6.22;5.55;;;48.30;29.20;;;;;;4879771;28;87105;-70
2022/07/18 07:50:12;;;;;;;6.45;5.50;;;48.60;29.30;;;;;;4881066;28;87656;-75
2022/07/18 07:52:38;;;;;;;5.90;5.25;;;49.00;28.70;;;;;;4887611;28;88031;-75
2022/07/18 07:55:05;;;;;;;7.07;5.47;;;49.30;28.90;;;;;;4875016;28;87370;-75
2022/07/18 07:57:32;;;;;;;5.90;4.97;;;49.90;28.80;;;;;;4880422;28;86128;-74
2022/07/18 07:59:57;;;;;;;4.82;4.32;;;50.30;28.80;;;;;;4891914;28;87103;-74
2022/07/18 08:02:23;;;;;;;7.43;6.45;;;50.00;28.50;;;;;;4881547;28;87098;-78
2022/07/18 08:04:50;;;;;;;6.90;5.78;;;49.10;29.10;;;;;;4878266;28;88524;-74
2022/07/18 08:07:16;;;;;;;6.82;5.82;;;48.60;29.20;;;;;;4887098;28;87058;-74
2022/07/18 08:09:42;;;;;;;8.85;5.32;;;49.10;29.10;;;;;;4882658;28;88149;-73
2022/07/18 08:12:07;;;;;;;5.05;4.57;;;48.40;29.00;;;;;;4896082;28;87223;-77
2022/07/18 08:14:35;;;;;;;6.90;6.20;;;48.40;29.70;;;;;;4881618;28;87484;-72
2022/07/18 08:17:00;;;;;;;10.90;6.43;;;49.30;28.90;;;;;;4894809;28;87099;-76
2022/07/18 08:19:26;;;;;;;10.93;5.85;;;50.10;28.70;;;;;;4898726;28;87457;-72
2022/07/18 08:21:52;;;;;;;8.23;6.50;;;48.50;28.80;;;;;;4898531;28;86301;-73
2022/07/18 08:24:17;;;;;;;11.20;6.72;;;48.20;29.30;;;;;;4891651;28;87071;-74
2022/07/18 08:26:43;;;;;;;6.55;5.82;;;47.80;29.40;;;;;;4878989;28;86773;-76
2022/07/18 08:29:09;;;;;;;7.57;6.55;;;48.40;29.40;;;;;;4877650;28;88709;-78
2022/07/18 08:31:36;;;;;;;7.38;6.68;;;49.40;29.50;;;;;;4874541;28;90260;-72
2022/07/18 08:34:02;;;;;;;8.02;5.75;;;49.30;29.60;;;;;;4873456;28;87077;-73
2022/07/18 08:36:27;;;;;;;7.90;6.20;;;49.60;29.40;;;;;;4879154;28;87235;-75
2022/07/18 08:38:53;;;;;;;7.88;6.93;;;50.60;28.80;;;;;;4871276;28;89190;-78
2022/07/18 08:41:21;;;;;;;10.85;7.35;;;50.10;29.00;;;;;;4876885;28;87160;-71
2022/07/18 08:43:49;;;;;;;10.30;5.55;;;49.60;29.10;;;;;;4876133;28;87010;-76
2022/07/18 08:46:18;;;;;;;6.88;5.88;;;50.20;29.10;;;;;;4876455;28;86459;-75
2022/07/18 08:48:44;;;;;;;9.18;8.43;;;50.50;28.50;;;;;;4867926;28;87397;-72
2022/07/18 08:51:10;;;;;;;8.15;7.32;;;51.10;28.20;;;;;;4877037;28;87791;-74
2022/07/18 08:53:37;;;;;;;6.63;5.75;;;49.20;28.90;;;;;;4874865;28;88003;-73
2022/07/18 08:56:04;;;;;;;9.02;8.13;;;48.10;29.00;;;;;;4877700;28;87054;-71
2022/07/18 08:58:29;;;;;;;6.40;5.90;;;47.70;29.50;;;;;;4878591;28;87286;-75
2022/07/18 09:00:58;;;;;;;8.02;6.78;;;47.80;29.20;;;;;;4878768;28;87819;-74
2022/07/18 09:03:24;;;;;;;7.15;5.25;;;46.90;29.80;;;;;;4878315;28;86928;-74
2022/07/18 09:06:04;;;;;;;6.15;5.55;;;47.40;29.50;;;;;;4886929;28;86967;-77
2022/07/18 09:08:30;;;;;;;11.65;6.65;;;48.10;29.20;;;;;;4884317;28;87445;-71
2022/07/18 09:10:57;;;;;;;6.53;5.93;;;48.00;28.70;;;;;;4877232;28;86285;-73
2022/07/18 09:13:32;;;;;;;6.75;5.90;;;47.20;28.90;;;;;;4878772;28;87088;-72
2022/07/18 09:16:08;;;;;;;5.50;5.00;;;48.80;28.50;;;;;;4883126;28;86913;-73
2022/07/18 09:18:39;;;;;;;8.60;7.90;;;47.90;28.40;;;;;;4871436;28;88369;-74
2022/07/18 09:21:11;;;;;;;7.07;6.47;;;48.00;29.00;;;;;;4859545;29;89064;-73
2022/07/18 09:23:39;;;;;;;8.95;7.82;;;49.40;28.90;;;;;;4874710;28;87012;-72
2022/07/18 09:26:05;;;;;;;6.32;5.82;;;50.30;27.60;;;;;;4877327;28;87061;-72
2022/07/18 09:28:51;;;;;;;7.22;6.63;;;49.50;28.70;;;;;;4878535;28;88160;-70
2022/07/18 09:31:22;;;;;;;8.18;6.85;;;51.00;28.80;;;;;;4878172;28;87021;-75
2022/07/18 09:33:59;;;;;;;7.75;7.05;;;51.30;27.70;;;;;;4875656;28;87060;-74
2022/07/18 09:36:25;;;;;;;7.55;6.85;;;51.60;27.40;;;;;;4878924;28;86355;-78
2022/07/18 09:38:51;;;;;;;8.00;7.20;;;52.00;27.40;;;;;;4877706;28;87026;-78
2022/07/18 09:41:26;;;;;;;7.93;7.03;;;51.20;28.20;;;;;;4893916;28;88683;-75
2022/07/18 09:43:52;;;;;;;11.57;8.40;;;51.20;27.40;;;;;;4894595;28;88031;-78
2022/07/18 09:46:17;;;;;;;9.63;8.73;;;51.20;27.80;;;;;;4896062;28;86957;-74
2022/07/18 09:48:43;;;;;;;8.63;7.78;;;50.70;28.00;;;;;;4894083;28;87550;-74
2022/07/18 09:51:10;;;;;;;8.82;6.72;;;50.30;29.00;;;;;;4873865;28;87829;-73
2022/07/18 09:53:37;;;;;;;9.23;7.90;;;49.80;28.50;;;;;;4879163;28;87428;-72
2022/07/18 09:56:07;;;;;;;9.55;8.65;;;48.80;28.80;;;;;;4873462;28;87525;-72
2022/07/18 09:58:36;;;;;;;9.70;6.88;;;48.60;29.10;;;;;;4860159;28;87703;-74
2022/07/18 10:01:04;;;;;;;6.90;5.82;;;49.20;29.50;;;;;;4876416;28;88128;-77
2022/07/18 10:03:30;;;;;;;8.32;6.95;;;50.90;29.00;;;;;;4877592;28;87059;-74
2022/07/18 10:05:57;;;;;;;8.82;7.47;;;51.50;28.20;;;;;;4875896;28;87090;-72
2022/07/18 10:08:25;;;;;;;6.90;6.28;;;51.40;28.70;;;;;;4873664;28;88194;-73
2022/07/18 10:10:53;;;;;;;7.70;6.88;;;52.10;27.40;;;;;;4873725;28;88640;-74
2022/07/18 10:13:20;;;;;;;7.65;7.05;;;50.80;28.20;;;;;;4876302;28;87021;-75
2022/07/18 10:15:46;;;;;;;;;;;48.90;28.60;;;;;;4878112;28;87027;-70
2022/07/18 10:18:15;;;;;;;7.78;7.07;;;47.50;29.30;;;;;;4878965;28;87179;-73
2022/07/18 10:21:01;;;;;;;7.55;6.40;;;43.30;31.30;;;;;;4870697;28;87309;-75
2022/07/18 10:23:46;;;;;;;5.75;5.15;;;40.70;34.40;;;;;;4872557;28;86812;-70
2022/07/18 10:26:27;;;;;;;5.80;4.95;;;39.10;36.30;;;;;;4878068;28;85817;-71
2022/07/18 10:28:59;;;;;;;6.30;4.38;;;38.30;34.70;;;;;;4877972;28;87576;-73
2022/07/18 10:32:04;;;;;;;4.55;3.55;;;37.90;37.40;;;;;;4863038;29;87879;-73
2022/07/18 10:34:36;;;;;;;3.53;2.63;;;36.30;38.70;;;;;;4860334;29;88435;-70
2022/07/18 10:37:06;;;;;;;5.90;2.95;;;35.70;40.50;;;;;;4863368;29;86945;-73
2022/07/18 10:39:54;;;;;;;4.80;3.05;;;35.30;38.90;;;;;;4868878;28;88261;-69
2022/07/18 10:42:24;;;;;;;4.78;2.40;;;34.40;42.00;;;;;;4883239;28;87340;-70
2022/07/18 10:44:49;;;;;;;4.53;1.95;;;33.90;45.10;;;;;;4882220;28;86898;-74
2022/07/18 10:47:20;;;;;;;5.40;2.90;;;34.10;42.00;;;;;;4882541;28;87150;-71
2022/07/18 10:49:56;;;;;;;4.32;2.05;;;33.40;42.90;;;;;;4882319;28;86747;-73
2022/07/18 10:52:24;;;;;;;4.80;2.35;;;33.20;44.60;;;;;;4882300;28;86952;-72
2022/07/18 10:57:34;;;;;;;2.90;1.88;;;32.70;43.70;;;;;;4881691;28;87068;-69
2022/07/18 11:00:09;;;;;;;3.97;2.15;;;33.10;43.00;;;;;;4882515;28;89269;-70
2022/07/18 11:02:40;;;;;;;3.35;2.45;;;33.10;43.70;;;;;;4881779;28;87908;-70
2022/07/18 11:05:24;;;;;;;3.92;2.88;;;32.80;45.00;;;;;;4881792;28;87084;-71
2022/07/18 11:07:58;;;;;;;3.17;2.35;;;33.00;43.30;;;;;;4866039;28;87281;-71
2022/07/18 11:10:54;;;;;;;5.72;2.22;;;32.60;43.70;;;;;;4878508;28;86855;-70
2022/07/18 11:13:23;;;;;;;5.47;2.38;;;32.30;46.50;;;;;;4899506;28;87038;-72
2022/07/18 11:16:05;;;;;;;3.97;2.10;;;32.30;44.40;;;;;;4875291;28;86924;-74
2022/07/18 11:18:32;;;;;;;7.32;1.75;;;32.00;44.80;;;;;;4882302;28;86317;-72
2022/07/18 11:20:58;;;;;;;4.65;2.33;;;31.90;46.70;;;;;;4880824;28;87259;-71
2022/07/18 11:23:26;;;;;;;5.40;2.53;;;31.70;46.30;;;;;;4882695;28;88086;-73
2022/07/18 11:25:54;;;;;;;3.60;1.90;;;31.80;44.80;;;;;;4881661;28;87864;-70
2022/07/18 11:28:21;;;;;;;5.22;1.77;;;32.00;45.20;;;;;;4883137;28;87090;-70
2022/07/18 11:31:08;;;;;;;8.30;1.95;;;32.00;45.20;;;;;;4878094;28;87095;-74
2022/07/18 11:33:36;;;;;;;4.60;1.65;;;32.00;44.60;;;;;;4881977;28;87202;-71
2022/07/18 11:36:07;;;;;;;4.22;2.15;;;32.00;44.00;;;;;;4881385;28;87141;-73
2022/07/18 11:38:34;;;;;;;6.28;1.83;;;32.10;44.50;;;;;;4882296;28;86966;-72
2022/07/18 11:41:01;;;;;;;4.78;2.00;;;31.90;45.70;;;;;;4882760;28;87310;-71
2022/07/18 11:43:28;;;;;;;3.15;1.70;;;31.80;44.30;;;;;;4878470;28;86459;-73
2022/07/18 11:46:07;;;;;;;3.30;2.05;;;31.70;43.50;;;;;;4871876;28;87354;-70
2022/07/18 11:48:34;;;;;;;4.10;1.92;;;31.90;45.90;;;;;;4882515;28;87080;-72
2022/07/18 11:51:00;;;;;;;5.88;1.83;;;32.00;46.10;;;;;;4881545;28;88621;-71
2022/07/18 11:53:27;;;;;;;5.15;1.73;;;31.90;47.10;;;;;;4882113;28;87882;-74
2022/07/18 11:55:56;;;;;;;8.07;1.48;;;31.90;46.50;;;;;;4881666;28;86959;-71
2022/07/18 11:58:22;;;;;;;3.78;1.60;;;32.10;42.90;;;;;;4881346;28;86652;-71
2022/07/18 12:00:48;;;;;;;4.95;1.30;;;32.10;43.90;;;;;;4880929;28;87427;-72
2022/07/18 12:03:17;;;;;;;2.03;1.27;;;31.40;42.00;;;;;;4881167;28;87747;-72
2022/07/18 12:05:45;;;;;;;5.30;1.73;;;31.40;45.40;;;;;;4881382;28;86990;-77
2022/07/18 12:08:34;;;;;;;2.50;1.55;;;31.50;45.50;;;;;;4881830;28;86165;-70
2022/07/18 12:11:27;;;;;;;4.40;1.48;;;31.50;45.20;;;;;;4881347;28;87710;-70
2022/07/18 12:14:13;;;;;;;2.25;1.20;;;31.90;42.10;;;;;;4881428;28;87382;-70
2022/07/18 12:16:41;;;;;;;2.63;1.60;;;31.90;42.50;;;;;;4880285;28;88358;-73
2022/07/18 12:19:13;;;;;;;3.22;1.65;;;31.70;44.00;;;;;;4880622;28;87170;-76
2022/07/18 12:21:55;;;;;;;9.15;1.17;;;31.40;44.90;;;;;;4881722;28;87970;-71
2022/07/18 12:24:49;;;;;;;1.95;0.73;;;31.60;42.60;;;;;;4880091;28;87525;-70
2022/07/18 12:27:44;;;;;;;;;;;31.60;40.60;;;;;;4882400;28;87473;-71
2022/07/18 12:30:20;;;;;;;2.17;1.35;;;31.50;43.10;;;;;;4869369;28;86947;-71
2022/07/18 12:32:51;;;;;;;3.28;1.20;;;31.50;43.70;;;;;;4880877;28;86941;-72
2022/07/18 12:35:27;;;;;;;1.77;0.93;;;31.30;40.60;;;;;;4881244;28;86991;-70
2022/07/18 12:38:02;;;;;;;3.53;0.90;;;31.50;40.30;;;;;;4881376;28;86930;-70
2022/07/18 12:41:01;;;;;;;1.60;0.70;;;31.70;38.60;;;;;;4881282;28;86953;-72
2022/07/18 12:43:31;;;;;;;1.75;0.90;;;31.50;37.80;;;;;;4880650;28;89225;-71
2022/07/18 12:45:59;;;;;;;1.77;0.80;;;31.30;36.80;;;;;;4879954;28;87082;-70
2022/07/18 12:48:27;;;;;;;2.15;0.70;;;31.30;38.00;;;;;;4880697;28;87268;-71
2022/07/18 12:51:01;;;;;;;1.75;0.95;;;31.30;36.10;;;;;;4881163;28;87042;-70
2022/07/18 12:53:30;;;;;;;2.47;0.70;;;31.30;38.00;;;;;;4881289;28;87739;-73
2022/07/18 12:55:56;;;;;;;1.77;1.00;;;31.30;37.10;;;;;;4880617;28;87915;-73
2022/07/18 12:58:22;;;;;;;3.00;0.88;;;31.40;40.20;;;;;;4880693;28;87040;-73
2022/07/18 13:00:48;;;;;;;2.78;1.23;;;31.60;41.40;;;;;;4881074;28;86390;-71
2022/07/18 13:03:14;;;;;;;3.83;1.13;;;31.70;42.10;;;;;;4881057;28;87113;-72
2022/07/18 13:05:41;;;;;;;2.42;1.58;;;31.50;40.40;;;;;;4881549;28;86967;-70
2022/07/18 13:08:08;;;;;;;1.90;0.95;;;31.30;42.90;;;;;;4879926;28;87899;-74
2022/07/18 13:10:35;;;;;;;2.33;0.88;;;31.20;42.70;;;;;;4888822;28;87054;-73
2022/07/18 13:13:05;;;;;;;1.73;1.20;;;31.30;39.10;;;;;;4898942;28;87636;-72
2022/07/18 13:15:31;;;;;;;1.70;1.00;;;31.20;39.50;;;;;;4883535;28;87251;-71
2022/07/18 13:17:57;;;;;;;2.75;1.05;;;31.20;40.50;;;;;;4880674;28;87244;-71
2022/07/18 13:20:23;;;;;;;6.38;1.20;;;31.40;41.40;;;;;;4880024;28;86992;-72
2022/07/18 13:22:49;;;;;;;2.47;1.17;;;31.60;42.20;;;;;;4880377;28;87661;-71
2022/07/18 13:25:16;;;;;;;2.33;1.13;;;31.60;43.30;;;;;;4880247;28;87018;-71
2022/07/18 13:27:42;;;;;;;2.67;1.23;;;31.30;40.70;;;;;;4880128;28;86920;-70
2022/07/18 13:30:08;;;;;;;2.80;1.02;;;31.10;40.20;;;;;;4879558;28;87190;-71
2022/07/18 13:32:35;;;;;;;3.50;0.73;;;30.90;42.70;;;;;;4879799;28;88455;-72
2022/07/18 13:35:02;;;;;;;2.88;0.82;;;31.20;40.40;;;;;;4880219;28;87145;-70
2022/07/18 13:37:27;;;;;;;2.58;0.88;;;31.10;40.50;;;;;;4881115;28;86756;-71
2022/07/18 13:39:53;;;;;;;2.00;0.90;;;31.20;37.40;;;;;;4880755;28;86911;-70
2022/07/18 13:42:19;;;;;;;3.00;0.98;;;31.40;37.80;;;;;;4880697;28;87161;-70
2022/07/18 13:44:45;;;;;;;2.28;1.00;;;31.30;40.40;;;;;;4880673;28;87016;-71
2022/07/18 13:47:15;;;;;;;1.70;0.88;;;31.50;39.50;;;;;;4880339;28;86982;-72
2022/07/18 13:49:40;;;;;;;3.78;1.05;;;31.40;39.90;;;;;;4881322;28;86099;-74
2022/07/18 13:52:06;;;;;;;3.42;0.80;;;31.40;39.40;;;;;;4881036;28;87647;-70
2022/07/18 13:54:32;;;;;;;1.83;1.00;;;31.10;38.50;;;;;;4881038;28;87777;-71
2022/07/18 13:56:58;;;;;;;1.90;0.73;;;31.30;35.70;;;;;;4880307;28;88254;-72
2022/07/18 13:59:23;;;;;;;1.88;0.73;;;31.30;39.50;;;;;;4880925;28;87326;-72
2022/07/18 14:01:49;;;;;;;2.97;1.17;;;31.40;40.40;;;;;;4873686;28;87768;-72
2022/07/18 14:04:18;;;;;;;3.35;1.25;;;31.30;40.30;;;;;;4883301;28;87455;-71
2022/07/18 14:06:44;;;;;;;3.30;1.02;;;31.20;39.10;;;;;;4883737;28;87050;-71
2022/07/18 14:09:10;;;;;;;2.33;1.15;;;31.10;39.40;;;;;;4884227;28;86985;-70
2022/07/18 14:11:36;;;;;;;3.67;1.15;;;31.10;40.80;;;;;;4897020;28;88189;-73
2022/07/18 14:14:03;;;;;;;2.72;1.05;;;31.00;41.50;;;;;;4883278;28;86878;-71
2022/07/18 14:16:29;;;;;;;2.10;1.10;;;31.00;38.00;;;;;;4882964;28;87039;-74
2022/07/18 14:18:55;;;;;;;2.17;0.80;;;31.00;39.80;;;;;;4883247;28;87074;-71
2022/07/18 14:21:21;;;;;;;2.05;0.98;;;31.10;39.40;;;;;;4882753;28;87890;-71
2022/07/18 14:23:47;;;;;;;4.70;0.90;;;31.20;39.70;;;;;;4869587;28;89986;-70
2022/07/18 14:26:13;;;;;;;3.90;0.90;;;31.10;39.80;;;;;;4902885;28;86976;-69
2022/07/18 14:28:38;;;;;;;3.58;1.10;;;31.30;38.90;;;;;;4887317;28;87044;-70
2022/07/18 14:31:04;;;;;;;1.48;0.98;;;31.30;39.10;;;;;;4883901;28;87438;-70
2022/07/18 14:33:30;;;;;;;1.95;0.93;;;31.20;39.60;;;;;;4883155;28;87850;-73
2022/07/18 14:35:56;;;;;;;3.47;0.98;;;31.20;40.30;;;;;;4869510;28;86902;-72
2022/07/18 14:38:22;;;;;;;3.53;0.73;;;31.30;40.80;;;;;;4875582;28;86107;-71
2022/07/18 14:40:47;;;;;;;1.80;0.93;;;31.40;39.50;;;;;;4881901;28;88180;-73
2022/07/18 14:43:13;;;;;;;1.50;0.68;;;31.40;41.00;;;;;;4880562;28;87026;-70
2022/07/18 14:45:39;;;;;;;4.20;0.80;;;31.40;38.30;;;;;;4883162;28;87975;-71
2022/07/18 14:48:05;;;;;;;2.60;0.60;;;31.10;39.10;;;;;;4882803;28;86899;-71
2022/07/18 14:50:30;;;;;;;1.90;0.65;;;31.10;37.30;;;;;;4882620;28;88089;-73
2022/07/18 14:52:56;;;;;;;4.20;0.90;;;31.20;37.20;;;;;;4883504;28;87394;-70
2022/07/18 14:55:22;;;;;;;2.05;1.25;;;31.10;38.60;;;;;;4883674;28;87148;-72
2022/07/18 14:57:48;;;;;;;1.73;1.23;;;31.20;41.40;;;;;;4882566;28;87038;-72
2022/07/18 15:00:14;;;;;;;2.72;0.80;;;31.20;39.10;;;;;;4882748;28;87277;-74
2022/07/18 15:02:40;;;;;;;3.05;0.75;;;31.30;38.70;;;;;;4884405;28;87433;-71
2022/07/18 15:05:06;;;;;;;2.42;1.20;;;31.30;37.90;;;;;;4878857;28;87203;-71
2022/07/18 15:07:32;;;;;;;3.95;0.75;;;31.30;38.60;;;;;;4876478;28;87337;-70
2022/07/18 15:09:58;;;;;;;1.52;0.98;;;31.10;39.00;;;;;;4872679;28;88020;-73
2022/07/18 15:12:24;;;;;;;1.77;0.98;;;31.20;38.30;;;;;;4889467;28;87111;-70
2022/07/18 15:14:50;;;;;;;1.80;0.98;;;31.30;38.60;;;;;;4882899;28;87501;-71
2022/07/18 15:17:16;;;;;;;2.40;1.38;;;31.20;39.50;;;;;;4879193;28;87101;-70
2022/07/18 15:19:41;;;;;;;4.38;0.93;;;31.20;38.60;;;;;;4876196;28;88153;-70
2022/07/18 15:22:07;;;;;;;2.00;0.93;;;31.30;38.50;;;;;;4882725;28;87230;-71
2022/07/18 15:24:34;;;;;;;1.75;0.90;;;31.30;37.80;;;;;;4880161;28;87138;-70
2022/07/18 15:27:00;;;;;;;5.82;0.82;;;31.40;37.70;;;;;;4882763;28;86271;-72
2022/07/18 15:29:26;;;;;;;2.35;0.90;;;31.30;37.40;;;;;;4884689;28;88309;-70
2022/07/18 15:31:52;;;;;;;1.70;0.70;;;31.30;36.70;;;;;;4884591;28;87285;-70
2022/07/18 15:34:18;;;;;;;7.45;0.90;;;31.10;38.70;;;;;;4883549;28;87857;-71
2022/07/18 15:36:44;;;;;;;2.42;0.85;;;31.20;38.30;;;;;;4882819;28;87032;-71
2022/07/18 15:39:10;;;;;;;3.38;0.90;;;31.30;38.10;;;;;;4883344;28;87213;-72
2022/07/18 15:41:35;;;;;;;2.70;0.90;;;31.30;38.30;;;;;;4883204;28;87339;-70